KINL/INL METAR and TAF weather

Enter ICAO airport designator
Station Type Date Time Source
KINL METAR 2020/07/04 09:55 UTC NOAA

KINL 040955Z AUTO 00000KT 10SM CLR 18/14 A3007 RMK AO2 SLP178 T01780144 $


Station Type Date Time Source
KINL Decoded METAR 2020/07/04 09:55 UTC NOAA

FALLS INTERNATIONAL AIRPORT , MN, United States (KINL) 48-34N 093-24W 360M
Jul 04, 2020 - 05:55 AM EDT / 2020.07.04 0955 UTC
Wind: Calm:0
Visibility: 10 mile(s):0
Sky conditions: clear
Temperature: 64.0 F (17.8 C)
Dew Point: 57.9 F (14.4 C)
Relative Humidity: 80%
Pressure (altimeter): 30.07 in. Hg (1018 hPa)
ob: KINL 040955Z AUTO 00000KT 10SM CLR 18/14 A3007 RMK AO2 SLP178 T01780144
cycle: 10

Station Type Date Time Source
KINL TAF 2020/07/04 06:54 UTC NOAA

TAF KINL 040552Z 0406/0506 35006KT P6SM VCSH SCT060
FM040800 VRB05KT P6SM SCT100
FM042100 22005KT P6SM VCSH BKN050
FM050200 VRB03KT P6SM BKN080

Example: see airport list